createdAt,value
2017-12-11T00:00:55.140Z,73.89
2017-12-11T00:03:22.665Z,73.52
2017-12-11T00:05:50.216Z,73.65
2017-12-11T00:08:17.793Z,74.16
2017-12-11T00:10:45.316Z,73.80
2017-12-11T00:13:12.880Z,73.66
2017-12-11T00:15:40.462Z,73.86
2017-12-11T00:18:07.999Z,73.99
2017-12-11T00:20:35.542Z,73.72
2017-12-11T00:23:03.320Z,74.06
2017-12-11T00:25:31.953Z,74.33
2017-12-11T00:27:59.517Z,74.42
2017-12-11T00:30:27.146Z,74.44
2017-12-11T00:32:54.913Z,74.41
2017-12-11T00:35:24.305Z,74.63
2017-12-11T00:37:51.867Z,74.47
2017-12-11T00:40:19.502Z,74.92
2017-12-11T00:42:47.081Z,74.97
2017-12-11T00:45:15.575Z,74.70
2017-12-11T00:47:43.104Z,74.93
2017-12-11T00:50:14.663Z,74.77
2017-12-11T00:52:42.551Z,74.82
2017-12-11T00:55:10.144Z,74.92
2017-12-11T00:57:38.298Z,75.36
2017-12-11T01:00:06.536Z,75.42
2017-12-11T01:02:35.048Z,75.54
2017-12-11T01:05:03.429Z,75.60
2017-12-11T01:07:31.207Z,75.55
2017-12-11T01:09:58.935Z,75.56
2017-12-11T01:12:26.785Z,75.84
2017-12-11T01:14:54.390Z,75.86
2017-12-11T01:17:22.057Z,75.54
2017-12-11T01:19:50.004Z,75.18
2017-12-11T01:22:17.648Z,75.24
2017-12-11T01:24:45.207Z,74.91
2017-12-11T01:27:16.136Z,75.11
2017-12-11T01:29:48.085Z,75.27
2017-12-11T01:32:16.618Z,74.74
2017-12-11T01:34:44.947Z,74.91
2017-12-11T01:37:18.454Z,75.09
2017-12-11T01:39:46.023Z,74.70
2017-12-11T01:42:14.250Z,74.86
2017-12-11T01:44:43.199Z,74.21
2017-12-11T01:47:10.857Z,73.68
2017-12-11T01:49:38.412Z,73.44
2017-12-11T01:52:05.928Z,73.54
2017-12-11T01:54:33.496Z,73.66
2017-12-11T01:57:01.066Z,72.84
2017-12-11T01:59:30.282Z,72.46
2017-12-11T02:01:58.104Z,72.21
2017-12-11T02:04:25.805Z,72.02
2017-12-11T02:06:56.786Z,72.18
2017-12-11T02:09:25.421Z,72.01
2017-12-11T02:11:52.931Z,71.88
2017-12-11T02:14:20.471Z,71.65
2017-12-11T02:16:47.947Z,72.40
2017-12-11T02:19:16.142Z,72.08
2017-12-11T02:21:43.681Z,71.91
2017-12-11T02:24:17.489Z,71.70
2017-12-11T02:26:45.335Z,72.19
2017-12-11T02:29:16.181Z,72.23
2017-12-11T02:31:43.772Z,71.91
2017-12-11T02:34:11.389Z,71.83
2017-12-11T02:36:39.159Z,72.19
2017-12-11T02:39:06.818Z,72.15
2017-12-11T02:41:35.205Z,71.99
2017-12-11T02:44:02.808Z,71.90
2017-12-11T02:46:30.355Z,71.85
2017-12-11T02:49:00.776Z,71.81
2017-12-11T02:51:33.953Z,71.21
2017-12-11T02:54:01.866Z,71.72
2017-12-11T02:56:29.487Z,72.23
2017-12-11T02:58:57.094Z,72.47
2017-12-11T03:01:24.901Z,72.32
2017-12-11T03:03:52.757Z,72.29
2017-12-11T03:06:20.532Z,73.05
2017-12-11T03:08:48.099Z,72.51
2017-12-11T03:11:15.724Z,72.89
2017-12-11T03:13:48.048Z,72.65
2017-12-11T03:16:15.580Z,72.82
2017-12-11T03:18:43.351Z,73.41
2017-12-11T03:23:43.849Z,72.82
2017-12-11T03:26:11.382Z,72.84
2017-12-11T03:28:39.027Z,72.49
2017-12-11T03:31:06.647Z,73.00
2017-12-11T03:33:34.276Z,72.68
2017-12-11T03:36:01.982Z,73.13
2017-12-11T03:38:29.687Z,73.31
2017-12-11T03:40:57.276Z,73.27
2017-12-11T03:43:25.926Z,73.28
2017-12-11T03:45:53.559Z,72.34
2017-12-11T03:48:23.465Z,72.01
2017-12-11T03:50:51.041Z,72.60
2017-12-11T03:53:18.758Z,72.93
2017-12-11T03:55:47.511Z,72.54
2017-12-11T03:58:15.165Z,72.54
2017-12-11T04:00:42.905Z,72.52
2017-12-11T04:03:10.417Z,73.58
2017-12-11T04:05:37.919Z,74.21
2017-12-11T04:08:05.459Z,74.57
2017-12-11T04:10:33.044Z,75.41
2017-12-11T04:13:01.478Z,74.71
2017-12-11T04:15:29.650Z,75.37
2017-12-11T04:17:57.267Z,76.10
2017-12-11T04:20:24.758Z,75.19
2017-12-11T04:22:53.919Z,74.47
2017-12-11T04:25:21.640Z,75.17
2017-12-11T04:27:50.237Z,74.12
2017-12-11T04:30:17.784Z,74.78
2017-12-11T04:32:48.687Z,74.34
2017-12-11T04:35:16.326Z,74.44
2017-12-11T04:37:43.975Z,74.87
2017-12-11T04:40:12.761Z,75.52
2017-12-11T04:42:40.365Z,75.74
2017-12-11T04:45:07.987Z,75.49
2017-12-11T04:47:35.752Z,76.96
2017-12-11T04:50:03.610Z,77.34
2017-12-11T04:55:54.947Z,76.86
2017-12-11T04:58:26.103Z,76.26
2017-12-11T05:00:58.604Z,76.35
2017-12-11T05:03:30.841Z,77.34
2017-12-11T05:06:01.872Z,76.68
2017-12-11T05:08:32.525Z,77.41
2017-12-11T05:11:01.452Z,76.90
2017-12-11T05:13:30.216Z,78.66
2017-12-11T05:15:58.738Z,78.47
2017-12-11T05:18:34.067Z,79.93
2017-12-11T05:21:19.095Z,79.44
2017-12-11T05:26:40.415Z,78.53
2017-12-11T05:29:53.534Z,78.52
2017-12-11T05:32:23.243Z,78.46
2017-12-11T05:49:02.287Z,79.04
2017-12-11T05:51:39.295Z,78.88
2017-12-11T05:54:07.474Z,79.12
2017-12-11T05:56:36.425Z,78.40
2017-12-11T05:59:04.224Z,78.24
2017-12-11T06:01:37.934Z,78.30
2017-12-11T06:04:06.516Z,78.71
2017-12-11T06:06:34.474Z,78.32
2017-12-11T06:09:20.151Z,78.21
2017-12-11T06:11:57.389Z,78.88
2017-12-11T06:19:58.074Z,78.77
2017-12-11T06:22:29.816Z,79.12
2017-12-11T06:25:02.647Z,79.21
2017-12-11T06:27:35.652Z,79.15
2017-12-11T06:33:09.606Z,79.53
2017-12-11T06:35:37.172Z,79.25
2017-12-11T06:38:04.672Z,79.25
2017-12-11T06:40:32.682Z,78.90
2017-12-11T06:43:10.130Z,80.48
2017-12-11T06:45:38.796Z,79.10
2017-12-11T06:50:57.951Z,78.27
2017-12-11T06:53:26.219Z,78.28
2017-12-11T06:55:59.878Z,79.40
2017-12-11T06:58:28.771Z,80.08
2017-12-11T07:00:58.611Z,79.55
2017-12-11T07:03:29.288Z,79.59
2017-12-11T07:05:57.124Z,79.66
2017-12-11T07:08:24.761Z,78.59
2017-12-11T07:10:54.281Z,79.01
2017-12-11T07:13:23.395Z,78.07
2017-12-11T07:15:56.672Z,77.97
2017-12-11T07:18:24.305Z,78.37
2017-12-11T07:20:51.867Z,81.35
2017-12-11T07:23:19.367Z,80.85
2017-12-11T07:25:46.818Z,80.62
2017-12-11T07:28:14.348Z,80.23
2017-12-11T07:30:42.535Z,80.03
2017-12-11T07:33:10.029Z,79.95
2017-12-11T07:35:37.531Z,80.23
2017-12-11T07:38:05.229Z,80.42
2017-12-11T07:40:32.847Z,80.54
2017-12-11T07:43:00.339Z,80.87
2017-12-11T07:45:29.350Z,80.61
2017-12-11T07:47:56.916Z,81.13
2017-12-11T07:50:24.496Z,82.11
2017-12-11T07:52:52.202Z,83.25
2017-12-11T07:56:42.236Z,83.26
2017-12-11T07:59:17.054Z,82.89
2017-12-11T08:01:48.565Z,84.54
2017-12-11T08:04:16.243Z,84.60
2017-12-11T08:06:43.767Z,84.50
2017-12-11T08:09:11.223Z,84.93
2017-12-11T08:11:38.705Z,85.42
2017-12-11T08:14:06.220Z,85.31
2017-12-11T08:16:33.695Z,84.41
2017-12-11T08:19:01.254Z,84.82
2017-12-11T08:21:28.754Z,85.01
2017-12-11T08:23:56.280Z,84.74
2017-12-11T08:26:23.966Z,84.69
2017-12-11T08:28:51.443Z,83.64
2017-12-11T08:31:19.542Z,83.35
2017-12-11T08:33:46.999Z,82.94
2017-12-11T08:36:14.480Z,82.59
2017-12-11T08:38:42.167Z,83.66
2017-12-11T08:41:09.677Z,83.96
2017-12-11T08:43:37.183Z,83.30
2017-12-11T08:46:04.656Z,83.69
2017-12-11T08:48:32.241Z,83.33
2017-12-11T08:50:59.857Z,82.87
2017-12-11T08:53:27.359Z,83.10
2017-12-11T08:55:55.786Z,82.75
2017-12-11T08:58:23.240Z,83.08
2017-12-11T09:00:50.729Z,82.02
2017-12-11T09:03:18.211Z,81.88
2017-12-11T09:05:45.739Z,81.45
2017-12-11T09:08:13.211Z,81.71
2017-12-11T09:10:40.702Z,81.56
2017-12-11T09:13:08.180Z,81.50
2017-12-11T09:15:35.780Z,82.35
2017-12-11T09:18:03.266Z,82.47
2017-12-11T09:20:31.232Z,82.96
2017-12-11T09:22:58.753Z,83.46
2017-12-11T09:25:26.250Z,84.60
2017-12-11T09:27:53.746Z,83.54
2017-12-11T09:30:21.446Z,83.22
2017-12-11T09:32:49.128Z,83.72
2017-12-11T09:35:16.598Z,82.94
2017-12-11T09:37:44.083Z,82.95
2017-12-11T09:40:11.575Z,83.65
2017-12-11T09:42:39.207Z,84.57
2017-12-11T09:45:06.717Z,85.58
2017-12-11T09:47:34.191Z,87.11
2017-12-11T09:50:01.841Z,87.18
2017-12-11T09:52:29.429Z,87.77
2017-12-11T09:54:57.262Z,87.92
2017-12-11T09:57:24.874Z,88.54
2017-12-11T09:59:52.382Z,88.52
2017-12-11T10:02:20.073Z,88.64
2017-12-11T10:04:47.813Z,87.68
2017-12-11T10:07:15.483Z,85.85
2017-12-11T10:09:42.949Z,84.69
2017-12-11T10:12:10.453Z,84.92
2017-12-11T10:14:37.956Z,84.37
2017-12-11T10:17:05.415Z,84.58
2017-12-11T10:19:36.824Z,84.97
2017-12-11T10:22:04.308Z,85.19
2017-12-11T10:24:31.952Z,85.14
2017-12-11T10:26:59.463Z,84.84
2017-12-11T10:29:26.951Z,84.92
2017-12-11T10:31:54.479Z,84.59
2017-12-11T10:34:21.946Z,84.41
2017-12-11T10:36:49.416Z,83.50
2017-12-11T10:39:16.889Z,83.09
2017-12-11T10:41:44.445Z,82.50
2017-12-11T10:44:12.074Z,82.18
2017-12-11T10:46:39.683Z,81.66
2017-12-11T10:49:07.168Z,81.53
2017-12-11T10:51:34.837Z,81.14
2017-12-11T10:54:02.366Z,81.49
2017-12-11T10:56:29.878Z,81.92
2017-12-11T10:58:57.375Z,82.33
2017-12-11T11:01:24.873Z,82.28
2017-12-11T11:03:52.372Z,82.42
2017-12-11T11:06:19.873Z,81.28
2017-12-11T11:08:47.390Z,80.84
2017-12-11T11:11:14.871Z,80.77
2017-12-11T11:13:42.383Z,80.35
2017-12-11T11:16:09.886Z,80.16
2017-12-11T11:18:37.387Z,80.03
2017-12-11T11:21:05.067Z,79.42
2017-12-11T11:23:32.594Z,80.33
2017-12-11T11:26:00.108Z,80.10
2017-12-11T11:28:27.609Z,80.05
2017-12-11T11:30:55.470Z,81.19
2017-12-11T11:33:23.000Z,81.07
2017-12-11T11:35:50.443Z,81.24
2017-12-11T11:38:17.903Z,80.10
2017-12-11T11:40:45.439Z,79.56
2017-12-11T11:43:13.184Z,79.67
2017-12-11T11:45:40.900Z,79.17
2017-12-11T11:48:08.386Z,79.08
2017-12-11T11:50:35.917Z,79.34
2017-12-11T11:53:03.403Z,80.19
2017-12-11T11:55:30.917Z,80.33
2017-12-11T11:57:58.388Z,80.45
2017-12-11T12:00:25.974Z,79.67
2017-12-11T12:02:53.603Z,79.59
2017-12-11T12:05:21.265Z,80.27
2017-12-11T12:07:48.759Z,80.19
2017-12-11T12:10:16.412Z,80.17
2017-12-11T12:12:44.051Z,82.32
2017-12-11T12:15:11.947Z,83.41
2017-12-11T12:17:39.408Z,82.50
2017-12-11T12:20:06.891Z,81.08
2017-12-11T12:22:34.586Z,81.66
2017-12-11T12:25:02.144Z,81.40
2017-12-11T12:27:29.666Z,81.06
2017-12-11T12:29:57.469Z,81.49
2017-12-11T12:32:24.961Z,84.29
2017-12-11T12:34:52.423Z,85.90
2017-12-11T12:37:19.879Z,86.53
2017-12-11T12:39:47.437Z,84.72
2017-12-11T12:42:14.935Z,85.15
2017-12-11T12:44:42.429Z,85.09
2017-12-11T12:47:09.880Z,85.18
2017-12-11T12:49:37.361Z,84.51
2017-12-11T12:52:04.879Z,81.92
2017-12-11T12:54:32.419Z,81.02
2017-12-11T12:56:59.944Z,79.20
2017-12-11T12:59:27.392Z,79.19
2017-12-11T13:01:54.955Z,79.42
2017-12-11T13:04:22.426Z,78.96
2017-12-11T13:06:49.877Z,80.20
2017-12-11T13:09:17.362Z,79.75
2017-12-11T13:11:45.459Z,79.83
2017-12-11T13:14:12.967Z,78.56
2017-12-11T13:16:40.483Z,77.98
2017-12-11T13:19:08.171Z,77.88
2017-12-11T13:21:35.803Z,79.11
2017-12-11T13:24:03.339Z,79.41
2017-12-11T13:26:30.860Z,78.96
2017-12-11T13:28:58.568Z,77.87
2017-12-11T13:31:26.047Z,78.30
2017-12-11T13:33:53.555Z,76.88
2017-12-11T13:36:21.023Z,77.58
2017-12-11T13:38:48.568Z,77.42
2017-12-11T13:41:16.039Z,77.82
2017-12-11T13:43:43.529Z,78.04
2017-12-11T13:46:11.012Z,78.53
2017-12-11T13:48:38.531Z,78.85
2017-12-11T13:51:06.014Z,80.20
2017-12-11T13:53:33.487Z,80.53
2017-12-11T13:56:01.020Z,79.67
2017-12-11T13:58:28.559Z,80.19
2017-12-11T14:00:55.999Z,81.63
2017-12-11T14:03:23.537Z,81.22
2017-12-11T14:05:50.995Z,81.98
2017-12-11T14:08:18.583Z,82.47
2017-12-11T14:10:46.521Z,81.83
2017-12-11T14:13:14.145Z,81.96
2017-12-11T14:15:41.663Z,81.84
2017-12-11T14:18:09.162Z,81.10
2017-12-11T14:20:36.843Z,80.41
2017-12-11T14:23:04.831Z,79.85
2017-12-11T14:25:32.307Z,80.12
2017-12-11T14:28:00.046Z,80.60
2017-12-11T14:30:27.564Z,80.48
2017-12-11T14:32:55.023Z,80.58
2017-12-11T14:35:22.493Z,80.34
2017-12-11T14:37:50.216Z,79.75
2017-12-11T14:40:18.669Z,79.45
2017-12-11T14:42:46.310Z,79.21
2017-12-11T14:45:13.942Z,79.36
2017-12-11T14:47:42.276Z,79.39
2017-12-11T14:50:10.048Z,79.36
2017-12-11T14:52:37.496Z,79.55
2017-12-11T14:55:05.032Z,79.96
2017-12-11T14:57:32.729Z,79.67
2017-12-11T15:00:00.479Z,80.00
2017-12-11T15:02:27.947Z,81.62
2017-12-11T15:04:55.423Z,83.16
2017-12-11T15:07:22.925Z,83.17
2017-12-11T15:09:50.412Z,82.74
2017-12-11T15:12:18.578Z,82.96
2017-12-11T15:14:46.306Z,83.60
2017-12-11T15:17:13.870Z,84.51
2017-12-11T15:19:41.466Z,84.60
2017-12-11T15:22:09.053Z,83.70
2017-12-11T15:24:36.547Z,84.43
2017-12-11T15:27:04.052Z,84.09
2017-12-11T15:29:32.399Z,82.89
2017-12-11T15:31:59.897Z,82.28
2017-12-11T15:34:27.415Z,81.38
2017-12-11T15:36:54.917Z,81.02
2017-12-11T15:39:22.420Z,80.70
2017-12-11T15:41:49.945Z,81.15
2017-12-11T15:44:17.533Z,80.78
2017-12-11T15:46:45.053Z,81.23
2017-12-11T15:49:12.742Z,82.72
2017-12-11T15:51:40.287Z,82.71
2017-12-11T15:54:07.849Z,82.13
2017-12-11T15:56:35.399Z,81.55
2017-12-11T15:59:03.537Z,81.87
2017-12-11T16:01:35.671Z,81.58
2017-12-11T16:04:14.285Z,81.40
2017-12-11T16:06:41.915Z,81.42
2017-12-11T16:09:09.465Z,81.01
2017-12-11T16:11:37.025Z,81.51
2017-12-11T16:14:04.508Z,81.12
2017-12-11T16:16:32.147Z,79.92
2017-12-11T16:18:59.654Z,80.86
2017-12-11T16:21:27.159Z,80.56
2017-12-11T16:23:54.673Z,79.75
2017-12-11T16:26:22.221Z,79.34
2017-12-11T16:28:49.760Z,79.68
2017-12-11T16:31:17.339Z,80.24
2017-12-11T16:33:44.974Z,80.27
2017-12-11T16:36:12.565Z,81.13
2017-12-11T16:38:40.088Z,80.89
2017-12-11T16:41:07.670Z,80.74
2017-12-11T16:43:35.970Z,80.61
2017-12-11T16:46:03.481Z,80.00
2017-12-11T16:48:31.076Z,80.12
2017-12-11T16:50:58.577Z,80.60
2017-12-11T16:53:26.121Z,81.45
2017-12-11T16:55:53.672Z,81.39
2017-12-11T16:58:21.149Z,80.70
2017-12-11T17:00:48.767Z,79.88
2017-12-11T17:03:16.244Z,80.50
2017-12-11T17:05:43.780Z,80.18
2017-12-11T17:08:11.915Z,80.01
2017-12-11T17:10:39.435Z,79.15
2017-12-11T17:13:06.978Z,79.46
2017-12-11T17:15:34.544Z,79.89
2017-12-11T17:18:02.150Z,80.36
2017-12-11T17:20:30.356Z,80.49
2017-12-11T17:22:57.912Z,79.85
2017-12-11T17:25:25.494Z,80.48
2017-12-11T17:27:53.005Z,80.60
2017-12-11T17:30:20.524Z,80.86
2017-12-11T17:32:48.634Z,81.05
2017-12-11T17:35:16.377Z,80.84
2017-12-11T17:37:43.869Z,80.45
2017-12-11T17:40:11.407Z,79.82
2017-12-11T17:42:39.124Z,80.10
2017-12-11T17:45:06.990Z,80.80
2017-12-11T17:47:34.488Z,80.75
2017-12-11T17:50:02.619Z,81.01
2017-12-11T17:52:30.281Z,80.68
2017-12-11T17:54:57.803Z,80.59
2017-12-11T17:57:25.651Z,80.56
2017-12-11T17:59:53.262Z,80.47
2017-12-11T18:02:20.772Z,80.75
2017-12-11T18:04:49.496Z,80.10
2017-12-11T18:07:17.061Z,80.31
2017-12-11T18:09:44.575Z,80.04
2017-12-11T18:12:12.519Z,79.68
2017-12-11T18:14:40.193Z,79.60
2017-12-11T18:17:07.688Z,79.34
2017-12-11T18:19:35.160Z,79.50
2017-12-11T18:22:02.699Z,79.45
2017-12-11T18:24:30.170Z,79.62
2017-12-11T18:26:57.677Z,79.31
2017-12-11T18:29:25.443Z,79.29
2017-12-11T18:31:52.927Z,79.31
2017-12-11T18:34:21.318Z,78.90
2017-12-11T18:36:49.038Z,78.45
2017-12-11T18:39:16.606Z,79.09
2017-12-11T18:41:44.138Z,79.19
2017-12-11T18:44:11.696Z,79.07
2017-12-11T18:46:39.209Z,78.66
2017-12-11T18:49:06.691Z,78.53
2017-12-11T18:51:34.336Z,78.52
2017-12-11T18:54:02.003Z,78.22
2017-12-11T18:56:29.546Z,78.43
2017-12-11T18:58:57.037Z,77.74
2017-12-11T19:01:24.795Z,77.83
2017-12-11T19:03:52.453Z,77.53
2017-12-11T19:06:20.059Z,77.34
2017-12-11T19:08:47.619Z,77.43
2017-12-11T19:11:15.130Z,77.53
2017-12-11T19:13:42.701Z,77.02
2017-12-11T19:16:10.273Z,76.76
2017-12-11T19:18:38.443Z,76.01
2017-12-11T19:21:05.939Z,75.89
2017-12-11T19:23:33.614Z,75.38
2017-12-11T19:26:01.204Z,74.64
2017-12-11T19:28:28.684Z,74.41
2017-12-11T19:30:56.192Z,74.39
2017-12-11T19:33:23.958Z,74.79
2017-12-11T19:35:51.536Z,74.16
2017-12-11T19:38:19.001Z,73.01
2017-12-11T19:40:46.505Z,73.56
2017-12-11T19:43:14.058Z,73.15
2017-12-11T19:45:41.586Z,72.95
2017-12-11T19:48:09.520Z,73.26
2017-12-11T19:50:36.991Z,72.89
2017-12-11T19:53:04.469Z,73.06
2017-12-11T19:55:32.649Z,72.57
2017-12-11T19:58:03.921Z,72.47
2017-12-11T20:00:31.444Z,71.80
2017-12-11T20:02:59.015Z,71.82
2017-12-11T20:05:26.682Z,71.63
2017-12-11T20:07:54.827Z,70.97
2017-12-11T20:10:22.696Z,70.99
2017-12-11T20:12:50.223Z,70.46
2017-12-11T20:15:17.701Z,69.90
2017-12-11T20:17:46.475Z,69.74
2017-12-11T20:20:13.986Z,70.20
2017-12-11T20:22:42.323Z,70.28
2017-12-11T20:25:11.315Z,69.91
2017-12-11T20:27:38.855Z,69.08
2017-12-11T20:30:06.418Z,69.26
2017-12-11T20:32:33.927Z,69.55
2017-12-11T20:35:02.108Z,69.23
2017-12-11T20:37:29.578Z,68.81
2017-12-11T20:39:57.067Z,68.76
2017-12-11T20:42:24.604Z,68.61
2017-12-11T20:44:52.212Z,68.44
2017-12-11T20:47:19.772Z,68.49
2017-12-11T20:49:47.276Z,68.46
2017-12-11T20:52:15.581Z,68.84
2017-12-11T20:54:43.544Z,68.49
2017-12-11T20:57:11.487Z,67.89
2017-12-11T20:59:39.338Z,68.02
2017-12-11T21:02:07.505Z,68.01
2017-12-11T21:04:35.624Z,67.99
2017-12-11T21:07:03.618Z,68.22
2017-12-11T21:09:31.516Z,67.78
2017-12-11T21:11:59.619Z,68.10
2017-12-11T21:14:27.758Z,67.80
2017-12-11T21:16:56.034Z,66.90
2017-12-11T21:19:24.204Z,67.57
2017-12-11T21:21:52.598Z,66.82
2017-12-11T21:24:21.010Z,66.45
2017-12-11T21:26:49.098Z,66.91
2017-12-11T21:29:17.282Z,67.12
2017-12-11T21:31:46.053Z,66.85
2017-12-11T21:34:14.609Z,66.63
2017-12-11T21:36:43.221Z,66.13
2017-12-11T21:39:11.920Z,65.78
2017-12-11T21:41:40.911Z,66.35
2017-12-11T21:44:10.127Z,65.42
2017-12-11T21:46:39.184Z,64.96
2017-12-11T21:49:07.721Z,65.36
2017-12-11T21:51:35.741Z,65.07
2017-12-11T21:54:03.301Z,65.06
2017-12-11T21:56:30.760Z,64.98
2017-12-11T21:58:58.264Z,65.27
2017-12-11T22:01:25.755Z,64.75
2017-12-11T22:03:53.238Z,65.35
2017-12-11T22:06:21.428Z,65.00
2017-12-11T22:08:49.201Z,65.13
2017-12-11T22:11:17.000Z,65.17
2017-12-11T22:13:44.625Z,65.62
2017-12-11T22:16:13.004Z,64.56
2017-12-11T22:18:40.642Z,64.74
2017-12-11T22:21:08.409Z,64.73
2017-12-11T22:23:36.954Z,64.96
2017-12-11T22:26:04.570Z,64.96
2017-12-11T22:28:32.103Z,65.00
2017-12-11T22:30:59.587Z,65.29
2017-12-11T22:33:27.088Z,65.39
2017-12-11T22:35:54.968Z,64.83
2017-12-11T22:38:22.452Z,65.25
2017-12-11T22:40:49.947Z,65.19
2017-12-11T22:43:18.249Z,65.21
2017-12-11T22:45:45.771Z,65.62
2017-12-11T22:48:13.427Z,65.62
2017-12-11T22:50:40.941Z,65.83
2017-12-11T22:53:08.606Z,64.76
2017-12-11T22:55:36.384Z,64.96
2017-12-11T22:58:04.048Z,65.24
2017-12-11T23:00:32.326Z,65.82
2017-12-11T23:02:59.805Z,64.91
2017-12-11T23:05:28.032Z,64.53
2017-12-11T23:07:55.516Z,64.88
2017-12-11T23:10:23.018Z,65.04
2017-12-11T23:12:50.470Z,64.95
2017-12-11T23:15:17.939Z,64.79
2017-12-11T23:17:45.441Z,64.81
2017-12-11T23:20:12.938Z,64.55
2017-12-11T23:22:40.871Z,64.95
2017-12-11T23:25:08.327Z,65.07
2017-12-11T23:27:35.932Z,65.35
2017-12-11T23:30:03.442Z,65.02
2017-12-11T23:32:30.902Z,64.61
2017-12-11T23:34:58.387Z,64.75
2017-12-11T23:37:25.859Z,64.85
2017-12-11T23:39:53.326Z,64.76
2017-12-11T23:42:20.809Z,64.17
2017-12-11T23:44:48.264Z,64.56
2017-12-11T23:47:15.756Z,65.03
2017-12-11T23:49:43.205Z,64.61
2017-12-11T23:52:10.778Z,64.86
2017-12-11T23:54:38.436Z,64.94
2017-12-11T23:57:05.885Z,64.93
2017-12-11T23:59:33.424Z,65.16
